sensor_id;sensor_type;location;lat;lon;timestamp;P1;durP1;ratioP1;P2;durP2;ratioP2
79261;SDS011;68699;48.220;16.358;2023-12-20T00:00:57;22.63;;;18.73;;
79261;SDS011;68699;48.220;16.358;2023-12-20T00:06:53;21.83;;;18.50;;
79261;SDS011;68699;48.220;16.358;2023-12-20T00:09:19;24.53;;;18.27;;
79261;SDS011;68699;48.220;16.358;2023-12-20T00:11:45;23.90;;;18.73;;
79261;SDS011;68699;48.220;16.358;2023-12-20T00:14:11;23.07;;;18.90;;
79261;SDS011;68699;48.220;16.358;2023-12-20T00:16:37;22.47;;;18.73;;
79261;SDS011;68699;48.220;16.358;2023-12-20T00:19:03;22.70;;;19.10;;
79261;SDS011;68699;48.220;16.358;2023-12-20T00:21:29;21.70;;;18.27;;
79261;SDS011;68699;48.220;16.358;2023-12-20T00:23:55;22.70;;;19.73;;
79261;SDS011;68699;48.220;16.358;2023-12-20T00:26:21;26.27;;;20.77;;
79261;SDS011;68699;48.220;16.358;2023-12-20T00:28:47;25.37;;;20.03;;
79261;SDS011;68699;48.220;16.358;2023-12-20T00:31:13;26.10;;;19.97;;
79261;SDS011;68699;48.220;16.358;2023-12-20T00:33:39;23.67;;;19.40;;
79261;SDS011;68699;48.220;16.358;2023-12-20T00:36:08;23.83;;;19.43;;
79261;SDS011;68699;48.220;16.358;2023-12-20T00:38:34;23.47;;;19.20;;
79261;SDS011;68699;48.220;16.358;2023-12-20T00:41:00;25.10;;;20.47;;
79261;SDS011;68699;48.220;16.358;2023-12-20T00:43:27;25.20;;;19.30;;
79261;SDS011;68699;48.220;16.358;2023-12-20T00:45:53;25.70;;;19.57;;
79261;SDS011;68699;48.220;16.358;2023-12-20T00:48:20;24.00;;;20.00;;
79261;SDS011;68699;48.220;16.358;2023-12-20T00:50:46;25.10;;;19.20;;
79261;SDS011;68699;48.220;16.358;2023-12-20T00:53:12;24.10;;;19.77;;
79261;SDS011;68699;48.220;16.358;2023-12-20T00:55:38;23.10;;;20.03;;
79261;SDS011;68699;48.220;16.358;2023-12-20T00:58:05;22.30;;;19.20;;
79261;SDS011;68699;48.220;16.358;2023-12-20T01:00:31;21.53;;;18.93;;
79261;SDS011;68699;48.220;16.358;2023-12-20T01:02:57;22.97;;;19.63;;
79261;SDS011;68699;48.220;16.358;2023-12-20T01:05:23;23.90;;;19.97;;
79261;SDS011;68699;48.220;16.358;2023-12-20T01:07:49;22.17;;;18.63;;
79261;SDS011;68699;48.220;16.358;2023-12-20T01:10:15;21.97;;;19.13;;
79261;SDS011;68699;48.220;16.358;2023-12-20T01:12:42;21.67;;;19.27;;
79261;SDS011;68699;48.220;16.358;2023-12-20T01:15:09;22.47;;;18.63;;
79261;SDS011;68699;48.220;16.358;2023-12-20T01:17:35;22.43;;;18.93;;
79261;SDS011;68699;48.220;16.358;2023-12-20T01:20:01;22.60;;;18.77;;
79261;SDS011;68699;48.220;16.358;2023-12-20T01:22:27;23.43;;;18.03;;
79261;SDS011;68699;48.220;16.358;2023-12-20T01:24:53;22.33;;;18.00;;
79261;SDS011;68699;48.220;16.358;2023-12-20T01:30:22;21.53;;;17.80;;
79261;SDS011;68699;48.220;16.358;2023-12-20T01:32:49;20.00;;;17.80;;
79261;SDS011;68699;48.220;16.358;2023-12-20T01:35:30;20.47;;;17.07;;
79261;SDS011;68699;48.220;16.358;2023-12-20T01:37:55;21.10;;;17.00;;
79261;SDS011;68699;48.220;16.358;2023-12-20T01:40:22;20.33;;;17.13;;
79261;SDS011;68699;48.220;16.358;2023-12-20T01:42:57;20.07;;;16.80;;
79261;SDS011;68699;48.220;16.358;2023-12-20T01:45:24;19.60;;;16.23;;
79261;SDS011;68699;48.220;16.358;2023-12-20T01:47:50;18.77;;;16.77;;
79261;SDS011;68699;48.220;16.358;2023-12-20T01:50:16;20.23;;;17.23;;
79261;SDS011;68699;48.220;16.358;2023-12-20T01:52:42;18.10;;;16.13;;
79261;SDS011;68699;48.220;16.358;2023-12-20T01:55:09;21.20;;;17.20;;
79261;SDS011;68699;48.220;16.358;2023-12-20T01:57:39;18.83;;;15.73;;
79261;SDS011;68699;48.220;16.358;2023-12-20T02:00:06;19.27;;;16.43;;
79261;SDS011;68699;48.220;16.358;2023-12-20T02:02:33;19.17;;;15.83;;
79261;SDS011;68699;48.220;16.358;2023-12-20T02:04:59;18.77;;;16.10;;
79261;SDS011;68699;48.220;16.358;2023-12-20T02:07:26;19.23;;;16.53;;
79261;SDS011;68699;48.220;16.358;2023-12-20T02:09:53;18.93;;;16.93;;
79261;SDS011;68699;48.220;16.358;2023-12-20T02:12:19;19.57;;;15.90;;
79261;SDS011;68699;48.220;16.358;2023-12-20T02:14:45;18.90;;;15.87;;
79261;SDS011;68699;48.220;16.358;2023-12-20T02:17:11;19.87;;;17.10;;
79261;SDS011;68699;48.220;16.358;2023-12-20T02:19:37;20.10;;;16.63;;
79261;SDS011;68699;48.220;16.358;2023-12-20T02:24:32;19.13;;;15.77;;
79261;SDS011;68699;48.220;16.358;2023-12-20T02:26:58;18.93;;;16.47;;
79261;SDS011;68699;48.220;16.358;2023-12-20T02:29:24;18.57;;;15.40;;
79261;SDS011;68699;48.220;16.358;2023-12-20T02:31:51;20.37;;;16.57;;
79261;SDS011;68699;48.220;16.358;2023-12-20T02:34:17;20.20;;;16.13;;
79261;SDS011;68699;48.220;16.358;2023-12-20T02:36:43;19.07;;;15.63;;
79261;SDS011;68699;48.220;16.358;2023-12-20T02:39:09;19.57;;;15.90;;
79261;SDS011;68699;48.220;16.358;2023-12-20T02:41:35;20.90;;;15.87;;
79261;SDS011;68699;48.220;16.358;2023-12-20T02:44:01;17.57;;;14.83;;
79261;SDS011;68699;48.220;16.358;2023-12-20T02:46:27;18.63;;;15.40;;
79261;SDS011;68699;48.220;16.358;2023-12-20T02:48:53;17.83;;;15.20;;
79261;SDS011;68699;48.220;16.358;2023-12-20T02:51:19;19.47;;;15.03;;
79261;SDS011;68699;48.220;16.358;2023-12-20T02:53:45;17.73;;;14.90;;
79261;SDS011;68699;48.220;16.358;2023-12-20T02:56:11;17.30;;;15.50;;
79261;SDS011;68699;48.220;16.358;2023-12-20T02:58:38;18.83;;;15.43;;
79261;SDS011;68699;48.220;16.358;2023-12-20T03:01:05;17.67;;;15.43;;
79261;SDS011;68699;48.220;16.358;2023-12-20T03:03:31;18.07;;;14.93;;
79261;SDS011;68699;48.220;16.358;2023-12-20T03:05:57;17.40;;;14.87;;
79261;SDS011;68699;48.220;16.358;2023-12-20T03:08:23;18.57;;;15.43;;
79261;SDS011;68699;48.220;16.358;2023-12-20T03:10:49;18.57;;;15.57;;
79261;SDS011;68699;48.220;16.358;2023-12-20T03:13:15;21.77;;;15.87;;
79261;SDS011;68699;48.220;16.358;2023-12-20T03:15:42;18.30;;;15.30;;
79261;SDS011;68699;48.220;16.358;2023-12-20T03:18:08;19.57;;;16.00;;
79261;SDS011;68699;48.220;16.358;2023-12-20T03:20:34;18.13;;;15.47;;
79261;SDS011;68699;48.220;16.358;2023-12-20T03:23:00;18.63;;;15.73;;
79261;SDS011;68699;48.220;16.358;2023-12-20T03:25:26;18.33;;;15.53;;
79261;SDS011;68699;48.220;16.358;2023-12-20T03:27:52;17.93;;;15.30;;
79261;SDS011;68699;48.220;16.358;2023-12-20T03:30:18;16.77;;;14.87;;
79261;SDS011;68699;48.220;16.358;2023-12-20T03:32:45;18.63;;;15.60;;
79261;SDS011;68699;48.220;16.358;2023-12-20T03:35:11;18.00;;;15.83;;
79261;SDS011;68699;48.220;16.358;2023-12-20T03:37:37;19.53;;;15.73;;
79261;SDS011;68699;48.220;16.358;2023-12-20T03:40:03;19.57;;;17.03;;
79261;SDS011;68699;48.220;16.358;2023-12-20T03:42:29;18.80;;;15.73;;
79261;SDS011;68699;48.220;16.358;2023-12-20T03:44:55;19.83;;;16.43;;
79261;SDS011;68699;48.220;16.358;2023-12-20T03:47:22;18.73;;;16.27;;
79261;SDS011;68699;48.220;16.358;2023-12-20T03:49:48;17.40;;;15.17;;
79261;SDS011;68699;48.220;16.358;2023-12-20T03:52:14;18.27;;;15.40;;
79261;SDS011;68699;48.220;16.358;2023-12-20T03:54:40;15.67;;;12.87;;
79261;SDS011;68699;48.220;16.358;2023-12-20T03:57:09;16.90;;;14.10;;
79261;SDS011;68699;48.220;16.358;2023-12-20T03:59:35;16.97;;;14.47;;
79261;SDS011;68699;48.220;16.358;2023-12-20T04:02:01;18.77;;;14.97;;
79261;SDS011;68699;48.220;16.358;2023-12-20T04:04:27;20.77;;;17.40;;
79261;SDS011;68699;48.220;16.358;2023-12-20T04:06:53;21.27;;;17.30;;
79261;SDS011;68699;48.220;16.358;2023-12-20T04:09:19;20.60;;;17.47;;
79261;SDS011;68699;48.220;16.358;2023-12-20T04:11:45;22.47;;;17.77;;
79261;SDS011;68699;48.220;16.358;2023-12-20T04:14:11;22.93;;;18.00;;
79261;SDS011;68699;48.220;16.358;2023-12-20T04:16:37;20.73;;;17.30;;
79261;SDS011;68699;48.220;16.358;2023-12-20T04:19:04;22.27;;;17.80;;
79261;SDS011;68699;48.220;16.358;2023-12-20T04:21:30;21.03;;;17.43;;
79261;SDS011;68699;48.220;16.358;2023-12-20T04:23:56;21.93;;;17.67;;
79261;SDS011;68699;48.220;16.358;2023-12-20T04:26:22;23.47;;;18.63;;
79261;SDS011;68699;48.220;16.358;2023-12-20T04:28:48;22.10;;;17.60;;
79261;SDS011;68699;48.220;16.358;2023-12-20T04:31:14;21.50;;;18.33;;
79261;SDS011;68699;48.220;16.358;2023-12-20T04:33:40;24.03;;;18.10;;
79261;SDS011;68699;48.220;16.358;2023-12-20T04:36:06;22.23;;;19.13;;
79261;SDS011;68699;48.220;16.358;2023-12-20T04:38:34;22.20;;;18.10;;
79261;SDS011;68699;48.220;16.358;2023-12-20T04:41:00;21.20;;;18.07;;
79261;SDS011;68699;48.220;16.358;2023-12-20T04:43:26;21.43;;;16.93;;
79261;SDS011;68699;48.220;16.358;2023-12-20T04:45:52;18.47;;;15.80;;
79261;SDS011;68699;48.220;16.358;2023-12-20T04:48:18;18.47;;;15.53;;
79261;SDS011;68699;48.220;16.358;2023-12-20T04:50:43;18.50;;;15.03;;
79261;SDS011;68699;48.220;16.358;2023-12-20T04:53:09;18.27;;;15.73;;
79261;SDS011;68699;48.220;16.358;2023-12-20T04:55:35;17.97;;;14.97;;
79261;SDS011;68699;48.220;16.358;2023-12-20T04:58:01;17.33;;;15.43;;
79261;SDS011;68699;48.220;16.358;2023-12-20T05:00:27;19.20;;;15.13;;
79261;SDS011;68699;48.220;16.358;2023-12-20T05:02:54;15.93;;;12.87;;
79261;SDS011;68699;48.220;16.358;2023-12-20T05:05:20;13.07;;;11.77;;
79261;SDS011;68699;48.220;16.358;2023-12-20T05:07:46;5.20;;;4.70;;
79261;SDS011;68699;48.220;16.358;2023-12-20T05:10:12;7.30;;;6.53;;
79261;SDS011;68699;48.220;16.358;2023-12-20T05:12:38;8.07;;;4.47;;
79261;SDS011;68699;48.220;16.358;2023-12-20T05:15:05;6.70;;;5.40;;
79261;SDS011;68699;48.220;16.358;2023-12-20T05:17:31;4.10;;;3.70;;
79261;SDS011;68699;48.220;16.358;2023-12-20T05:19:57;3.80;;;3.17;;
79261;SDS011;68699;48.220;16.358;2023-12-20T05:22:24;4.23;;;3.10;;
79261;SDS011;68699;48.220;16.358;2023-12-20T05:24:50;5.10;;;2.87;;
79261;SDS011;68699;48.220;16.358;2023-12-20T05:27:16;4.03;;;3.20;;
79261;SDS011;68699;48.220;16.358;2023-12-20T05:29:42;3.27;;;2.70;;
79261;SDS011;68699;48.220;16.358;2023-12-20T05:32:08;3.20;;;2.77;;
79261;SDS011;68699;48.220;16.358;2023-12-20T05:34:34;3.30;;;2.97;;
79261;SDS011;68699;48.220;16.358;2023-12-20T05:37:00;3.73;;;3.37;;
79261;SDS011;68699;48.220;16.358;2023-12-20T05:39:26;3.83;;;2.77;;
79261;SDS011;68699;48.220;16.358;2023-12-20T05:41:53;2.83;;;2.60;;
79261;SDS011;68699;48.220;16.358;2023-12-20T05:44:19;3.07;;;2.80;;
79261;SDS011;68699;48.220;16.358;2023-12-20T05:46:45;3.23;;;2.80;;
79261;SDS011;68699;48.220;16.358;2023-12-20T05:49:11;3.93;;;2.53;;
79261;SDS011;68699;48.220;16.358;2023-12-20T05:51:38;3.73;;;2.60;;
79261;SDS011;68699;48.220;16.358;2023-12-20T05:54:04;4.07;;;2.80;;
79261;SDS011;68699;48.220;16.358;2023-12-20T05:56:30;3.37;;;3.07;;
79261;SDS011;68699;48.220;16.358;2023-12-20T05:58:56;2.50;;;2.30;;
79261;SDS011;68699;48.220;16.358;2023-12-20T06:01:23;2.43;;;2.23;;
79261;SDS011;68699;48.220;16.358;2023-12-20T06:03:49;2.77;;;2.47;;
79261;SDS011;68699;48.220;16.358;2023-12-20T06:06:15;3.70;;;2.57;;
79261;SDS011;68699;48.220;16.358;2023-12-20T06:08:42;2.97;;;2.40;;
79261;SDS011;68699;48.220;16.358;2023-12-20T06:11:08;2.80;;;2.33;;
79261;SDS011;68699;48.220;16.358;2023-12-20T06:13:34;2.70;;;2.43;;
79261;SDS011;68699;48.220;16.358;2023-12-20T06:16:00;3.23;;;2.93;;
79261;SDS011;68699;48.220;16.358;2023-12-20T06:18:26;3.20;;;2.43;;
79261;SDS011;68699;48.220;16.358;2023-12-20T06:20:52;3.60;;;2.90;;
79261;SDS011;68699;48.220;16.358;2023-12-20T06:23:18;2.90;;;2.60;;
79261;SDS011;68699;48.220;16.358;2023-12-20T06:25:44;5.37;;;3.50;;
79261;SDS011;68699;48.220;16.358;2023-12-20T06:28:10;13.13;;;3.83;;
79261;SDS011;68699;48.220;16.358;2023-12-20T06:30:39;3.30;;;2.60;;
79261;SDS011;68699;48.220;16.358;2023-12-20T06:33:05;5.63;;;3.30;;
79261;SDS011;68699;48.220;16.358;2023-12-20T06:35:32;8.80;;;4.00;;
79261;SDS011;68699;48.220;16.358;2023-12-20T06:37:58;7.40;;;3.17;;
79261;SDS011;68699;48.220;16.358;2023-12-20T06:40:24;5.27;;;2.60;;
79261;SDS011;68699;48.220;16.358;2023-12-20T06:42:50;5.47;;;2.90;;
79261;SDS011;68699;48.220;16.358;2023-12-20T06:45:16;3.10;;;2.60;;
79261;SDS011;68699;48.220;16.358;2023-12-20T06:47:42;2.57;;;2.30;;
79261;SDS011;68699;48.220;16.358;2023-12-20T06:50:08;2.80;;;2.20;;
79261;SDS011;68699;48.220;16.358;2023-12-20T06:52:34;2.40;;;2.20;;
79261;SDS011;68699;48.220;16.358;2023-12-20T06:55:00;2.83;;;2.20;;
79261;SDS011;68699;48.220;16.358;2023-12-20T06:57:26;3.13;;;2.40;;
79261;SDS011;68699;48.220;16.358;2023-12-20T06:59:53;2.70;;;2.47;;
79261;SDS011;68699;48.220;16.358;2023-12-20T07:02:19;2.60;;;2.10;;
79261;SDS011;68699;48.220;16.358;2023-12-20T07:04:46;2.43;;;2.10;;
79261;SDS011;68699;48.220;16.358;2023-12-20T07:07:12;2.57;;;2.30;;
79261;SDS011;68699;48.220;16.358;2023-12-20T07:09:38;2.80;;;2.40;;
79261;SDS011;68699;48.220;16.358;2023-12-20T07:12:06;2.50;;;2.30;;
79261;SDS011;68699;48.220;16.358;2023-12-20T07:14:32;3.60;;;2.20;;
79261;SDS011;68699;48.220;16.358;2023-12-20T07:16:58;2.50;;;2.30;;
79261;SDS011;68699;48.220;16.358;2023-12-20T07:19:24;5.27;;;2.50;;
79261;SDS011;68699;48.220;16.358;2023-12-20T07:21:50;2.70;;;2.50;;
79261;SDS011;68699;48.220;16.358;2023-12-20T07:24:19;3.33;;;2.87;;
79261;SDS011;68699;48.220;16.358;2023-12-20T07:26:45;2.93;;;2.63;;
79261;SDS011;68699;48.220;16.358;2023-12-20T07:29:11;5.90;;;2.80;;
79261;SDS011;68699;48.220;16.358;2023-12-20T07:31:37;7.77;;;2.90;;
79261;SDS011;68699;48.220;16.358;2023-12-20T07:34:03;3.43;;;2.57;;
79261;SDS011;68699;48.220;16.358;2023-12-20T07:36:30;6.10;;;2.90;;
79261;SDS011;68699;48.220;16.358;2023-12-20T07:38:56;2.73;;;2.53;;
79261;SDS011;68699;48.220;16.358;2023-12-20T07:41:22;3.17;;;2.73;;
79261;SDS011;68699;48.220;16.358;2023-12-20T07:43:48;3.17;;;2.70;;
79261;SDS011;68699;48.220;16.358;2023-12-20T07:46:14;4.63;;;3.33;;
79261;SDS011;68699;48.220;16.358;2023-12-20T07:48:40;3.43;;;2.93;;
79261;SDS011;68699;48.220;16.358;2023-12-20T07:51:07;3.20;;;2.87;;
79261;SDS011;68699;48.220;16.358;2023-12-20T07:53:34;3.33;;;2.50;;
79261;SDS011;68699;48.220;16.358;2023-12-20T07:56:00;3.10;;;2.77;;
79261;SDS011;68699;48.220;16.358;2023-12-20T07:58:26;5.13;;;3.23;;
79261;SDS011;68699;48.220;16.358;2023-12-20T08:00:55;3.73;;;2.90;;
79261;SDS011;68699;48.220;16.358;2023-12-20T08:03:21;6.07;;;3.00;;
79261;SDS011;68699;48.220;16.358;2023-12-20T08:05:46;2.90;;;2.60;;
79261;SDS011;68699;48.220;16.358;2023-12-20T08:08:12;2.47;;;2.27;;
79261;SDS011;68699;48.220;16.358;2023-12-20T08:10:38;5.63;;;2.50;;
79261;SDS011;68699;48.220;16.358;2023-12-20T08:13:04;2.80;;;2.60;;
79261;SDS011;68699;48.220;16.358;2023-12-20T08:15:31;3.10;;;2.20;;
79261;SDS011;68699;48.220;16.358;2023-12-20T08:17:57;2.77;;;2.40;;
79261;SDS011;68699;48.220;16.358;2023-12-20T08:20:25;2.70;;;2.50;;
79261;SDS011;68699;48.220;16.358;2023-12-20T08:22:51;2.50;;;2.30;;
79261;SDS011;68699;48.220;16.358;2023-12-20T08:25:17;3.67;;;2.60;;
79261;SDS011;68699;48.220;16.358;2023-12-20T08:27:43;4.30;;;2.90;;
79261;SDS011;68699;48.220;16.358;2023-12-20T08:30:09;3.17;;;2.60;;
79261;SDS011;68699;48.220;16.358;2023-12-20T08:32:35;3.10;;;2.80;;
79261;SDS011;68699;48.220;16.358;2023-12-20T08:35:01;3.23;;;2.33;;
79261;SDS011;68699;48.220;16.358;2023-12-20T08:37:27;3.17;;;2.50;;
79261;SDS011;68699;48.220;16.358;2023-12-20T08:39:53;3.53;;;2.93;;
79261;SDS011;68699;48.220;16.358;2023-12-20T08:42:19;3.40;;;3.00;;
79261;SDS011;68699;48.220;16.358;2023-12-20T08:44:45;3.73;;;2.90;;
79261;SDS011;68699;48.220;16.358;2023-12-20T08:47:11;3.23;;;2.83;;
79261;SDS011;68699;48.220;16.358;2023-12-20T08:49:40;3.17;;;2.67;;
79261;SDS011;68699;48.220;16.358;2023-12-20T08:52:06;3.03;;;2.77;;
79261;SDS011;68699;48.220;16.358;2023-12-20T08:54:32;2.63;;;2.40;;
79261;SDS011;68699;48.220;16.358;2023-12-20T08:56:58;3.07;;;2.87;;
79261;SDS011;68699;48.220;16.358;2023-12-20T08:59:24;2.67;;;2.47;;
79261;SDS011;68699;48.220;16.358;2023-12-20T09:01:50;3.40;;;2.80;;
79261;SDS011;68699;48.220;16.358;2023-12-20T09:04:19;2.80;;;2.60;;
79261;SDS011;68699;48.220;16.358;2023-12-20T09:06:45;2.57;;;2.37;;
79261;SDS011;68699;48.220;16.358;2023-12-20T09:09:11;2.70;;;2.50;;
79261;SDS011;68699;48.220;16.358;2023-12-20T09:11:39;3.37;;;2.43;;
79261;SDS011;68699;48.220;16.358;2023-12-20T09:14:05;2.80;;;2.50;;
79261;SDS011;68699;48.220;16.358;2023-12-20T09:16:31;2.73;;;2.53;;
79261;SDS011;68699;48.220;16.358;2023-12-20T09:18:57;2.47;;;2.13;;
79261;SDS011;68699;48.220;16.358;2023-12-20T09:21:25;2.50;;;2.23;;
79261;SDS011;68699;48.220;16.358;2023-12-20T09:23:51;2.40;;;2.20;;
79261;SDS011;68699;48.220;16.358;2023-12-20T09:26:17;2.63;;;2.43;;
79261;SDS011;68699;48.220;16.358;2023-12-20T09:28:43;10.33;;;2.73;;
79261;SDS011;68699;48.220;16.358;2023-12-20T09:31:09;3.50;;;2.13;;
79261;SDS011;68699;48.220;16.358;2023-12-20T09:33:35;2.10;;;1.90;;
79261;SDS011;68699;48.220;16.358;2023-12-20T09:36:01;1.63;;;1.50;;
79261;SDS011;68699;48.220;16.358;2023-12-20T09:38:27;1.80;;;1.70;;
79261;SDS011;68699;48.220;16.358;2023-12-20T09:40:53;1.93;;;1.70;;
79261;SDS011;68699;48.220;16.358;2023-12-20T09:43:20;2.00;;;1.63;;
79261;SDS011;68699;48.220;16.358;2023-12-20T09:45:50;1.73;;;1.63;;
79261;SDS011;68699;48.220;16.358;2023-12-20T09:48:17;1.50;;;1.40;;
79261;SDS011;68699;48.220;16.358;2023-12-20T09:53:48;2.57;;;1.73;;
79261;SDS011;68699;48.220;16.358;2023-12-20T09:56:15;1.80;;;1.70;;
79261;SDS011;68699;48.220;16.358;2023-12-20T09:58:41;1.80;;;1.70;;
79261;SDS011;68699;48.220;16.358;2023-12-20T10:01:07;1.87;;;1.77;;
79261;SDS011;68699;48.220;16.358;2023-12-20T10:03:33;2.23;;;1.70;;
79261;SDS011;68699;48.220;16.358;2023-12-20T10:06:00;2.00;;;1.90;;
79261;SDS011;68699;48.220;16.358;2023-12-20T10:08:26;2.10;;;1.90;;
79261;SDS011;68699;48.220;16.358;2023-12-20T10:10:55;1.63;;;1.53;;
79261;SDS011;68699;48.220;16.358;2023-12-20T10:13:22;1.77;;;1.67;;
79261;SDS011;68699;48.220;16.358;2023-12-20T10:15:49;2.17;;;1.80;;
79261;SDS011;68699;48.220;16.358;2023-12-20T10:18:16;2.27;;;1.70;;
79261;SDS011;68699;48.220;16.358;2023-12-20T10:20:42;2.13;;;1.93;;
79261;SDS011;68699;48.220;16.358;2023-12-20T10:23:08;1.77;;;1.67;;
79261;SDS011;68699;48.220;16.358;2023-12-20T10:25:35;2.10;;;1.90;;
79261;SDS011;68699;48.220;16.358;2023-12-20T10:28:14;2.27;;;2.07;;
79261;SDS011;68699;48.220;16.358;2023-12-20T10:30:43;2.10;;;2.00;;
79261;SDS011;68699;48.220;16.358;2023-12-20T10:33:09;2.40;;;2.20;;
79261;SDS011;68699;48.220;16.358;2023-12-20T10:35:36;1.73;;;1.63;;
79261;SDS011;68699;48.220;16.358;2023-12-20T10:38:03;1.80;;;1.70;;
79261;SDS011;68699;48.220;16.358;2023-12-20T10:40:30;1.80;;;1.70;;
79261;SDS011;68699;48.220;16.358;2023-12-20T10:42:56;1.90;;;1.80;;
79261;SDS011;68699;48.220;16.358;2023-12-20T10:45:24;4.60;;;2.27;;
79261;SDS011;68699;48.220;16.358;2023-12-20T10:47:50;2.10;;;1.90;;
79261;SDS011;68699;48.220;16.358;2023-12-20T10:50:18;2.00;;;1.80;;
79261;SDS011;68699;48.220;16.358;2023-12-20T10:52:44;2.10;;;1.90;;
79261;SDS011;68699;48.220;16.358;2023-12-20T10:55:10;1.70;;;1.60;;
79261;SDS011;68699;48.220;16.358;2023-12-20T10:57:36;1.97;;;1.87;;
79261;SDS011;68699;48.220;16.358;2023-12-20T11:00:02;2.13;;;1.93;;
79261;SDS011;68699;48.220;16.358;2023-12-20T11:02:29;2.43;;;2.00;;
79261;SDS011;68699;48.220;16.358;2023-12-20T11:04:59;2.10;;;1.90;;
79261;SDS011;68699;48.220;16.358;2023-12-20T11:09:57;2.10;;;1.90;;
79261;SDS011;68699;48.220;16.358;2023-12-20T11:15:00;2.20;;;2.00;;
79261;SDS011;68699;48.220;16.358;2023-12-20T11:17:29;2.27;;;2.13;;
79261;SDS011;68699;48.220;16.358;2023-12-20T11:22:21;2.00;;;1.90;;
79261;SDS011;68699;48.220;16.358;2023-12-20T11:24:47;1.90;;;1.80;;
79261;SDS011;68699;48.220;16.358;2023-12-20T11:27:14;4.37;;;1.90;;
79261;SDS011;68699;48.220;16.358;2023-12-20T11:29:40;2.07;;;1.97;;
79261;SDS011;68699;48.220;16.358;2023-12-20T11:32:28;1.90;;;1.80;;
79261;SDS011;68699;48.220;16.358;2023-12-20T11:34:57;1.60;;;1.50;;
79261;SDS011;68699;48.220;16.358;2023-12-20T11:37:57;2.00;;;1.80;;
79261;SDS011;68699;48.220;16.358;2023-12-20T11:40:16;2.20;;;2.00;;
79261;SDS011;68699;48.220;16.358;2023-12-20T11:42:44;1.80;;;1.70;;
79261;SDS011;68699;48.220;16.358;2023-12-20T11:45:13;1.70;;;1.60;;
79261;SDS011;68699;48.220;16.358;2023-12-20T11:47:45;1.70;;;1.60;;
79261;SDS011;68699;48.220;16.358;2023-12-20T11:50:12;1.60;;;1.50;;
79261;SDS011;68699;48.220;16.358;2023-12-20T11:52:38;1.73;;;1.63;;
79261;SDS011;68699;48.220;16.358;2023-12-20T11:55:05;1.70;;;1.60;;
79261;SDS011;68699;48.220;16.358;2023-12-20T11:57:32;1.70;;;1.60;;
79261;SDS011;68699;48.220;16.358;2023-12-20T11:59:58;1.60;;;1.50;;
79261;SDS011;68699;48.220;16.358;2023-12-20T12:02:24;1.60;;;1.50;;
79261;SDS011;68699;48.220;16.358;2023-12-20T12:04:50;2.37;;;1.70;;
79261;SDS011;68699;48.220;16.358;2023-12-20T12:07:16;1.60;;;1.50;;
79261;SDS011;68699;48.220;16.358;2023-12-20T12:09:43;1.60;;;1.50;;
79261;SDS011;68699;48.220;16.358;2023-12-20T12:12:09;2.43;;;1.67;;
79261;SDS011;68699;48.220;16.358;2023-12-20T12:14:36;1.90;;;1.50;;
79261;SDS011;68699;48.220;16.358;2023-12-20T12:17:02;1.60;;;1.50;;
79261;SDS011;68699;48.220;16.358;2023-12-20T12:19:29;1.43;;;1.33;;
79261;SDS011;68699;48.220;16.358;2023-12-20T12:24:38;1.53;;;1.40;;
79261;SDS011;68699;48.220;16.358;2023-12-20T12:27:07;1.33;;;1.30;;
79261;SDS011;68699;48.220;16.358;2023-12-20T12:29:34;1.40;;;1.30;;
79261;SDS011;68699;48.220;16.358;2023-12-20T12:32:00;1.17;;;1.17;;
79261;SDS011;68699;48.220;16.358;2023-12-20T12:34:29;1.50;;;1.40;;
79261;SDS011;68699;48.220;16.358;2023-12-20T12:36:55;1.43;;;1.33;;
79261;SDS011;68699;48.220;16.358;2023-12-20T12:39:23;1.67;;;1.30;;
79261;SDS011;68699;48.220;16.358;2023-12-20T12:41:55;2.00;;;1.60;;
79261;SDS011;68699;48.220;16.358;2023-12-20T12:44:21;1.33;;;1.23;;
79261;SDS011;68699;48.220;16.358;2023-12-20T12:46:48;1.10;;;1.10;;
79261;SDS011;68699;48.220;16.358;2023-12-20T12:49:16;1.70;;;1.60;;
79261;SDS011;68699;48.220;16.358;2023-12-20T12:51:42;1.60;;;1.20;;
79261;SDS011;68699;48.220;16.358;2023-12-20T12:54:08;1.30;;;1.20;;
79261;SDS011;68699;48.220;16.358;2023-12-20T12:56:35;1.53;;;1.20;;
79261;SDS011;68699;48.220;16.358;2023-12-20T12:59:01;1.43;;;1.30;;
79261;SDS011;68699;48.220;16.358;2023-12-20T13:01:27;1.20;;;1.20;;
79261;SDS011;68699;48.220;16.358;2023-12-20T13:03:53;1.20;;;1.20;;
79261;SDS011;68699;48.220;16.358;2023-12-20T13:06:19;1.70;;;1.60;;
79261;SDS011;68699;48.220;16.358;2023-12-20T13:08:45;1.30;;;1.20;;
79261;SDS011;68699;48.220;16.358;2023-12-20T13:11:11;3.03;;;1.33;;
79261;SDS011;68699;48.220;16.358;2023-12-20T13:13:38;1.10;;;1.10;;
79261;SDS011;68699;48.220;16.358;2023-12-20T13:16:04;1.17;;;1.17;;
79261;SDS011;68699;48.220;16.358;2023-12-20T13:18:30;1.30;;;1.20;;
79261;SDS011;68699;48.220;16.358;2023-12-20T13:20:56;1.20;;;1.20;;
79261;SDS011;68699;48.220;16.358;2023-12-20T13:23:22;1.40;;;1.30;;
79261;SDS011;68699;48.220;16.358;2023-12-20T13:25:48;1.50;;;1.40;;
79261;SDS011;68699;48.220;16.358;2023-12-20T13:28:14;1.00;;;1.00;;
79261;SDS011;68699;48.220;16.358;2023-12-20T13:30:40;1.23;;;1.03;;
79261;SDS011;68699;48.220;16.358;2023-12-20T13:33:06;1.30;;;1.20;;
79261;SDS011;68699;48.220;16.358;2023-12-20T13:35:33;1.20;;;1.20;;
79261;SDS011;68699;48.220;16.358;2023-12-20T13:38:00;1.80;;;1.70;;
79261;SDS011;68699;48.220;16.358;2023-12-20T13:40:26;2.03;;;1.30;;
79261;SDS011;68699;48.220;16.358;2023-12-20T13:42:53;1.40;;;1.30;;
79261;SDS011;68699;48.220;16.358;2023-12-20T13:45:20;1.10;;;1.10;;
79261;SDS011;68699;48.220;16.358;2023-12-20T13:47:46;1.27;;;1.23;;
79261;SDS011;68699;48.220;16.358;2023-12-20T13:50:12;1.60;;;1.50;;
79261;SDS011;68699;48.220;16.358;2023-12-20T13:52:38;1.47;;;1.37;;
79261;SDS011;68699;48.220;16.358;2023-12-20T13:55:04;1.03;;;1.03;;
79261;SDS011;68699;48.220;16.358;2023-12-20T13:57:32;1.40;;;1.30;;
79261;SDS011;68699;48.220;16.358;2023-12-20T13:59:59;1.57;;;1.47;;
79261;SDS011;68699;48.220;16.358;2023-12-20T14:02:25;1.07;;;1.07;;
79261;SDS011;68699;48.220;16.358;2023-12-20T14:04:52;1.30;;;1.20;;
79261;SDS011;68699;48.220;16.358;2023-12-20T14:07:18;1.27;;;1.20;;
79261;SDS011;68699;48.220;16.358;2023-12-20T14:09:44;1.57;;;1.47;;
79261;SDS011;68699;48.220;16.358;2023-12-20T14:12:10;1.20;;;1.20;;
79261;SDS011;68699;48.220;16.358;2023-12-20T14:14:36;1.37;;;1.27;;
79261;SDS011;68699;48.220;16.358;2023-12-20T14:17:02;1.03;;;1.00;;
79261;SDS011;68699;48.220;16.358;2023-12-20T14:19:29;1.40;;;1.20;;
79261;SDS011;68699;48.220;16.358;2023-12-20T14:24:58;1.30;;;1.20;;
79261;SDS011;68699;48.220;16.358;2023-12-20T14:27:24;1.00;;;1.00;;
79261;SDS011;68699;48.220;16.358;2023-12-20T14:29:53;3.97;;;1.37;;
79261;SDS011;68699;48.220;16.358;2023-12-20T14:32:19;1.17;;;1.07;;
79261;SDS011;68699;48.220;16.358;2023-12-20T14:34:45;1.77;;;1.10;;
79261;SDS011;68699;48.220;16.358;2023-12-20T14:37:11;1.40;;;1.30;;
79261;SDS011;68699;48.220;16.358;2023-12-20T14:39:37;1.37;;;1.27;;
79261;SDS011;68699;48.220;16.358;2023-12-20T14:42:06;1.10;;;1.00;;
79261;SDS011;68699;48.220;16.358;2023-12-20T14:44:36;1.00;;;1.00;;
79261;SDS011;68699;48.220;16.358;2023-12-20T14:47:02;2.17;;;1.10;;